createdAt,value
2022-07-25T00:00:58.453Z,0.00
2022-07-25T00:01:58.871Z,0.00
2022-07-25T00:02:59.026Z,0.00
2022-07-25T00:03:59.410Z,0.00
2022-07-25T00:04:59.693Z,0.00
2022-07-25T00:05:59.928Z,0.00
2022-07-25T00:07:00.157Z,0.00
2022-07-25T00:08:00.496Z,0.00
2022-07-25T00:09:00.827Z,0.00
2022-07-25T00:10:01.146Z,0.00
2022-07-25T00:11:01.490Z,0.00
2022-07-25T00:12:01.818Z,0.00
2022-07-25T00:13:02.169Z,0.00
2022-07-25T00:14:02.545Z,0.00
2022-07-25T00:15:02.719Z,0.00
2022-07-25T00:16:03.030Z,0.00
2022-07-25T00:17:03.242Z,0.00
2022-07-25T00:18:03.471Z,0.00
2022-07-25T00:19:03.824Z,0.00
2022-07-25T00:20:04.056Z,0.00
2022-07-25T00:21:04.458Z,0.00
2022-07-25T00:22:04.671Z,0.00
2022-07-25T00:23:05.013Z,0.00
2022-07-25T00:24:05.531Z,0.00
2022-07-25T00:25:05.575Z,0.00
2022-07-25T00:26:05.915Z,0.00
2022-07-25T00:27:06.254Z,0.00
2022-07-25T00:28:06.578Z,0.00
2022-07-25T00:29:06.915Z,0.00
2022-07-25T00:30:07.267Z,0.00
2022-07-25T00:31:07.572Z,0.00
2022-07-25T00:32:07.797Z,0.00
2022-07-25T00:33:08.125Z,0.00
2022-07-25T00:34:08.873Z,0.00
2022-07-25T00:35:08.817Z,0.00
2022-07-25T00:36:09.034Z,0.00
2022-07-25T00:37:09.358Z,0.00
2022-07-25T00:38:09.697Z,0.00
2022-07-25T00:39:10.037Z,0.00
2022-07-25T00:40:10.377Z,0.00
2022-07-25T00:41:10.722Z,0.00
2022-07-25T00:42:11.064Z,0.00
2022-07-25T00:43:11.400Z,0.00
2022-07-25T00:44:11.722Z,0.00
2022-07-25T00:45:12.070Z,0.00
2022-07-25T00:46:12.413Z,0.00
2022-07-25T00:47:12.722Z,0.00
2022-07-25T00:48:13.071Z,0.00
2022-07-25T00:49:13.471Z,0.00
2022-07-25T00:50:13.705Z,0.00
2022-07-25T00:51:13.924Z,0.00
2022-07-25T00:52:14.262Z,0.00
2022-07-25T00:53:14.604Z,0.00
2022-07-25T00:54:14.944Z,0.00
2022-07-25T00:55:15.300Z,0.00
2022-07-25T00:56:15.508Z,0.00
2022-07-25T00:57:15.846Z,0.00
2022-07-25T00:58:16.189Z,0.00
2022-07-25T00:59:16.506Z,0.00
2022-07-25T01:00:16.848Z,0.00
2022-07-25T01:01:17.205Z,0.00
2022-07-25T01:02:17.563Z,0.00
2022-07-25T01:03:19.871Z,0.00
2022-07-25T01:04:18.068Z,0.00
2022-07-25T01:05:18.418Z,0.00
2022-07-25T01:06:18.758Z,0.00
2022-07-25T01:07:19.089Z,0.00
2022-07-25T01:08:19.418Z,0.00
2022-07-25T01:09:19.760Z,0.00
2022-07-25T01:10:20.121Z,0.00
2022-07-25T01:11:20.333Z,0.00
2022-07-25T01:12:20.732Z,0.00
2022-07-25T01:13:21.032Z,0.00
2022-07-25T01:14:21.209Z,0.00
2022-07-25T01:15:21.573Z,0.00
2022-07-25T01:16:21.856Z,0.00
2022-07-25T01:17:22.098Z,0.00
2022-07-25T01:18:22.414Z,0.00
2022-07-25T01:19:22.772Z,0.00
2022-07-25T01:20:22.984Z,0.00
2022-07-25T01:21:23.325Z,0.00
2022-07-25T01:22:23.657Z,0.00
2022-07-25T01:23:24.005Z,0.00
2022-07-25T01:24:24.336Z,0.00
2022-07-25T01:25:24.683Z,0.00
2022-07-25T01:26:25.027Z,0.00
2022-07-25T01:27:25.376Z,0.00
2022-07-25T01:28:25.738Z,0.00
2022-07-25T01:29:26.008Z,0.00
2022-07-25T01:30:26.362Z,0.00
2022-07-25T01:31:28.687Z,0.00
2022-07-25T01:32:26.845Z,0.00
2022-07-25T01:33:27.181Z,0.00
2022-07-25T01:34:27.517Z,0.00
2022-07-25T01:35:27.860Z,0.00
2022-07-25T01:36:28.222Z,0.00
2022-07-25T01:37:28.442Z,0.00
2022-07-25T01:38:28.785Z,0.00
2022-07-25T01:39:29.108Z,0.00
2022-07-25T01:40:29.483Z,0.00
2022-07-25T01:41:29.717Z,0.00
2022-07-25T01:42:29.916Z,0.00
2022-07-25T01:43:30.163Z,0.00
2022-07-25T01:44:30.503Z,0.00
2022-07-25T01:45:30.851Z,0.00
2022-07-25T01:46:31.241Z,0.00
2022-07-25T01:47:31.464Z,0.00
2022-07-25T01:48:31.815Z,0.00
2022-07-25T01:49:32.155Z,0.00
2022-07-25T01:50:32.377Z,0.00
2022-07-25T01:51:32.717Z,0.00
2022-07-25T01:52:33.046Z,0.00
2022-07-25T01:53:33.382Z,0.00
2022-07-25T01:54:33.656Z,0.00
2022-07-25T01:55:33.998Z,0.00
2022-07-25T01:56:34.254Z,0.00
2022-07-25T01:57:36.262Z,0.00
2022-07-25T01:58:34.919Z,0.00
2022-07-25T01:59:35.267Z,0.00
2022-07-25T02:00:35.601Z,0.00
2022-07-25T02:01:35.999Z,0.00
2022-07-25T02:02:36.241Z,0.00
2022-07-25T02:03:36.480Z,0.00
2022-07-25T02:04:36.764Z,0.00
2022-07-25T02:05:37.020Z,0.00
2022-07-25T02:06:37.233Z,0.00
2022-07-25T02:07:37.562Z,0.00
2022-07-25T02:08:37.895Z,0.00
2022-07-25T02:09:38.165Z,0.00
2022-07-25T02:10:38.513Z,0.00
2022-07-25T02:11:38.846Z,0.00
2022-07-25T02:12:39.185Z,0.00
2022-07-25T02:13:39.506Z,0.00
2022-07-25T02:14:39.845Z,0.00
2022-07-25T02:15:40.205Z,0.00
2022-07-25T02:16:40.503Z,0.00
2022-07-25T02:17:40.740Z,0.00
2022-07-25T02:18:40.937Z,0.00
2022-07-25T02:19:41.307Z,0.00
2022-07-25T02:20:41.550Z,0.00
2022-07-25T02:21:41.768Z,0.00
2022-07-25T02:22:42.019Z,0.00
2022-07-25T02:23:42.233Z,0.00
2022-07-25T02:24:42.578Z,0.00
2022-07-25T02:25:42.935Z,0.00
2022-07-25T02:26:43.150Z,0.00
2022-07-25T02:27:43.482Z,0.00
2022-07-25T02:28:43.810Z,0.00
2022-07-25T02:29:44.174Z,0.00
2022-07-25T02:30:44.440Z,0.00
2022-07-25T02:31:44.657Z,0.00
2022-07-25T02:32:44.991Z,0.00
2022-07-25T02:33:45.332Z,0.00
2022-07-25T02:34:53.062Z,0.00
2022-07-25T02:35:45.884Z,0.00
2022-07-25T02:36:46.212Z,0.00
2022-07-25T02:37:46.554Z,0.00
2022-07-25T02:38:46.889Z,0.00
2022-07-25T02:39:47.215Z,0.00
2022-07-25T02:40:47.549Z,0.00
2022-07-25T02:41:47.868Z,0.00
2022-07-25T02:42:48.193Z,0.00
2022-07-25T02:43:48.524Z,0.00
2022-07-25T02:44:48.858Z,0.00
2022-07-25T02:45:49.257Z,0.00
2022-07-25T02:46:49.514Z,0.00
2022-07-25T02:47:49.847Z,0.00
2022-07-25T02:48:50.216Z,0.00
2022-07-25T02:49:50.426Z,0.00
2022-07-25T02:50:50.775Z,0.00
2022-07-25T02:51:51.010Z,0.00
2022-07-25T02:52:51.229Z,0.00
2022-07-25T02:53:59.115Z,0.00
2022-07-25T02:54:52.899Z,0.00
2022-07-25T02:55:52.182Z,0.00
2022-07-25T02:56:52.504Z,0.00
2022-07-25T02:57:52.843Z,0.00
2022-07-25T02:58:53.188Z,0.00
2022-07-25T02:59:53.520Z,0.00
2022-07-25T03:00:53.916Z,0.00
2022-07-25T03:01:54.222Z,0.00
2022-07-25T03:02:54.445Z,0.00
2022-07-25T03:03:54.814Z,0.00
2022-07-25T03:04:55.024Z,5.62
2022-07-25T03:05:55.387Z,5.62
2022-07-25T03:06:55.612Z,5.62
2022-07-25T03:07:55.986Z,5.62
2022-07-25T03:08:56.195Z,5.62
2022-07-25T03:09:56.559Z,5.62
2022-07-25T03:10:56.799Z,5.62
2022-07-25T03:11:57.033Z,5.62
2022-07-25T03:12:57.266Z,5.62
2022-07-25T03:13:57.495Z,5.62
2022-07-25T03:14:57.729Z,5.62
2022-07-25T03:15:57.967Z,5.62
2022-07-25T03:16:58.299Z,5.62
2022-07-25T03:17:58.528Z,11.25
2022-07-25T03:18:58.758Z,11.25
2022-07-25T03:19:59.001Z,11.25
2022-07-25T03:20:59.251Z,11.25
2022-07-25T03:21:59.472Z,11.25
2022-07-25T03:22:59.703Z,16.88
2022-07-25T03:23:59.931Z,16.88
2022-07-25T03:25:00.165Z,16.88
2022-07-25T03:26:00.453Z,16.88
2022-07-25T03:27:00.698Z,16.88
2022-07-25T03:28:00.930Z,22.50
2022-07-25T03:29:01.155Z,22.50
2022-07-25T03:30:01.392Z,22.50
2022-07-25T03:31:01.625Z,22.50
2022-07-25T03:32:01.922Z,28.12
2022-07-25T03:33:02.185Z,28.12
2022-07-25T03:34:02.653Z,28.12
2022-07-25T03:35:02.796Z,28.12
2022-07-25T03:36:03.038Z,28.12
2022-07-25T03:37:03.265Z,28.12
2022-07-25T03:38:03.508Z,33.75
2022-07-25T03:39:05.583Z,33.75
2022-07-25T03:40:04.025Z,33.75
2022-07-25T03:41:04.260Z,33.75
2022-07-25T03:42:04.510Z,39.38
2022-07-25T03:43:04.727Z,39.38
2022-07-25T03:44:05.363Z,39.38
2022-07-25T03:45:05.416Z,39.38
2022-07-25T03:46:05.714Z,39.38
2022-07-25T03:47:05.990Z,39.38
2022-07-25T03:48:06.232Z,45.00
2022-07-25T03:49:06.524Z,45.00
2022-07-25T03:50:06.718Z,50.62
2022-07-25T03:51:07.441Z,50.62
2022-07-25T03:52:07.212Z,50.62
2022-07-25T03:53:07.463Z,50.62
2022-07-25T03:54:07.942Z,50.62
2022-07-25T03:55:08.041Z,50.62
2022-07-25T03:56:08.299Z,50.62
2022-07-25T03:57:08.549Z,50.62
2022-07-25T03:58:08.798Z,50.62
2022-07-25T03:59:09.044Z,50.62
2022-07-25T04:00:09.300Z,50.62
2022-07-25T04:01:09.632Z,50.62
2022-07-25T04:02:09.802Z,50.62
2022-07-25T04:03:10.081Z,50.62
2022-07-25T04:04:10.480Z,50.62
2022-07-25T04:05:10.648Z,50.62
2022-07-25T04:06:10.892Z,50.62
2022-07-25T04:07:11.138Z,50.62
2022-07-25T04:08:11.378Z,50.62
2022-07-25T04:09:11.619Z,50.62
2022-07-25T04:10:11.886Z,50.62
2022-07-25T04:11:12.129Z,50.62
2022-07-25T04:12:12.368Z,50.62
2022-07-25T04:13:12.620Z,56.25
2022-07-25T04:14:12.880Z,56.25
2022-07-25T04:15:13.138Z,61.88
2022-07-25T04:16:14.897Z,67.50
2022-07-25T04:17:14.771Z,67.50
2022-07-25T04:18:18.494Z,73.12
2022-07-25T04:19:15.305Z,67.50
2022-07-25T04:20:14.617Z,67.50
2022-07-25T04:21:14.865Z,67.50
2022-07-25T04:22:15.103Z,67.50
2022-07-25T04:23:15.355Z,67.50
2022-07-25T04:24:15.618Z,67.50
2022-07-25T04:25:15.865Z,67.50
2022-07-25T04:26:16.105Z,73.12
2022-07-25T04:27:16.344Z,73.12
2022-07-25T04:28:16.582Z,73.12
2022-07-25T04:29:16.837Z,73.12
2022-07-25T04:30:23.828Z,73.12
2022-07-25T04:31:18.439Z,73.12
2022-07-25T04:32:22.835Z,73.12
2022-07-25T04:33:19.058Z,73.12
2022-07-25T04:34:18.351Z,73.12
2022-07-25T04:35:18.600Z,73.12
2022-07-25T04:36:18.852Z,78.75
2022-07-25T04:37:19.100Z,78.75
2022-07-25T04:38:19.342Z,73.12
2022-07-25T04:39:19.605Z,73.12
2022-07-25T04:40:19.860Z,73.12
2022-07-25T04:41:20.101Z,73.12
2022-07-25T04:42:20.352Z,73.12
2022-07-25T04:43:20.593Z,73.12
2022-07-25T04:44:20.863Z,67.50
2022-07-25T04:45:21.129Z,73.12
2022-07-25T04:46:21.471Z,73.12
2022-07-25T04:47:21.715Z,73.12
2022-07-25T04:48:21.967Z,78.75
2022-07-25T04:49:22.222Z,73.12
2022-07-25T04:50:25.013Z,73.12
2022-07-25T04:51:22.726Z,73.12
2022-07-25T04:52:22.988Z,78.75
2022-07-25T04:53:23.236Z,84.38
2022-07-25T04:54:23.496Z,84.38
2022-07-25T04:55:23.747Z,90.00
2022-07-25T04:56:23.997Z,90.00
2022-07-25T04:57:24.251Z,90.00
2022-07-25T04:58:24.507Z,90.00
2022-07-25T04:59:24.762Z,90.00
2022-07-25T05:00:25.010Z,84.38
2022-07-25T05:01:25.340Z,101.25
2022-07-25T05:02:25.578Z,106.88
2022-07-25T05:03:25.776Z,112.50
2022-07-25T05:04:26.031Z,129.38
2022-07-25T05:05:26.282Z,157.50
2022-07-25T05:06:26.522Z,281.25
2022-07-25T05:07:26.792Z,1186.88
2022-07-25T05:08:27.078Z,1344.38
2022-07-25T05:09:27.348Z,1395.00
2022-07-25T05:10:27.594Z,1451.25
2022-07-25T05:11:27.875Z,1417.50
2022-07-25T05:12:28.131Z,1440.00
2022-07-25T05:13:28.424Z,1496.25
2022-07-25T05:14:28.695Z,1530.00
2022-07-25T05:15:28.957Z,1366.88
2022-07-25T05:16:29.270Z,1344.38
2022-07-25T05:17:29.556Z,1395.00
2022-07-25T05:18:29.828Z,1445.62
2022-07-25T05:19:30.098Z,1400.62
2022-07-25T05:20:30.357Z,1321.88
2022-07-25T05:21:30.620Z,1456.88
2022-07-25T05:22:30.882Z,1451.25
2022-07-25T05:23:31.164Z,1451.25
2022-07-25T05:24:31.423Z,1440.00
2022-07-25T05:25:31.690Z,1451.25
2022-07-25T05:26:31.941Z,1372.50
2022-07-25T05:27:32.204Z,1445.62
2022-07-25T05:28:32.490Z,1395.00
2022-07-25T05:29:32.749Z,1423.12
2022-07-25T05:30:37.799Z,1366.88
2022-07-25T05:31:34.361Z,1338.75
2022-07-25T05:32:33.574Z,1406.25
2022-07-25T05:33:33.844Z,1350.00
2022-07-25T05:34:34.103Z,1372.50
2022-07-25T05:35:34.359Z,1378.12
2022-07-25T05:36:34.627Z,1299.38
2022-07-25T05:37:34.906Z,1400.62
2022-07-25T05:38:35.195Z,1305.00
2022-07-25T05:39:35.458Z,1265.62
2022-07-25T05:40:35.709Z,1288.12
2022-07-25T05:41:35.984Z,1215.00
2022-07-25T05:42:36.230Z,1254.38
2022-07-25T05:43:36.514Z,1220.62
2022-07-25T05:44:36.786Z,1265.62
2022-07-25T05:45:37.011Z,1383.75
2022-07-25T05:46:37.309Z,1288.12
2022-07-25T05:47:37.554Z,1220.62
2022-07-25T05:48:37.877Z,1271.25
2022-07-25T05:49:38.076Z,1282.50
2022-07-25T05:50:38.365Z,1293.75
2022-07-25T05:51:38.735Z,1344.38
2022-07-25T05:52:39.015Z,1316.25
2022-07-25T05:53:39.298Z,1153.12
2022-07-25T05:54:39.556Z,1141.88
2022-07-25T05:55:40.153Z,1051.88
2022-07-25T05:56:40.097Z,871.88
2022-07-25T05:57:40.388Z,686.25
2022-07-25T05:58:40.679Z,506.25
2022-07-25T05:59:40.961Z,466.88
2022-07-25T06:00:41.210Z,562.50
2022-07-25T06:01:41.555Z,585.00
2022-07-25T06:02:41.836Z,376.88
2022-07-25T06:03:42.004Z,309.38
2022-07-25T06:04:42.249Z,315.00
2022-07-25T06:05:42.515Z,331.88
2022-07-25T06:06:42.754Z,343.12
2022-07-25T06:07:43.023Z,315.00
2022-07-25T06:08:43.293Z,315.00
2022-07-25T06:09:43.561Z,331.88
2022-07-25T06:10:43.809Z,365.62
2022-07-25T06:11:54.470Z,388.12
2022-07-25T06:12:45.411Z,618.75
2022-07-25T06:13:44.774Z,945.00
2022-07-25T06:14:45.048Z,1006.88
2022-07-25T06:15:45.319Z,1051.88
2022-07-25T06:16:45.703Z,877.50
2022-07-25T06:17:45.837Z,506.25
2022-07-25T06:18:46.122Z,376.88
2022-07-25T06:19:46.409Z,371.25
2022-07-25T06:20:46.675Z,399.38
2022-07-25T06:21:46.941Z,427.50
2022-07-25T06:22:47.212Z,506.25
2022-07-25T06:23:47.512Z,939.38
2022-07-25T06:24:47.769Z,1012.50
2022-07-25T06:25:50.488Z,1248.75
2022-07-25T06:26:48.315Z,1243.12
2022-07-25T06:27:48.595Z,1215.00
2022-07-25T06:28:48.885Z,1231.88
2022-07-25T06:29:49.166Z,849.38
2022-07-25T06:30:49.436Z,630.00
2022-07-25T06:31:49.769Z,720.00
2022-07-25T06:32:49.966Z,995.62
2022-07-25T06:33:50.260Z,1299.38
2022-07-25T06:34:50.520Z,1096.88
2022-07-25T06:35:50.818Z,1029.38
2022-07-25T06:36:51.073Z,1108.12
2022-07-25T06:37:51.352Z,1119.38
2022-07-25T06:38:51.650Z,1271.25
2022-07-25T06:39:51.925Z,1170.00
2022-07-25T06:40:52.183Z,1642.50
2022-07-25T06:41:52.467Z,1631.25
2022-07-25T06:42:52.748Z,1265.62
2022-07-25T06:43:53.035Z,1501.88
2022-07-25T06:44:53.298Z,1153.12
2022-07-25T06:45:53.604Z,990.00
2022-07-25T06:46:53.913Z,990.00
2022-07-25T06:47:54.207Z,1063.12
2022-07-25T06:48:54.543Z,1260.00
2022-07-25T06:49:54.719Z,956.25
2022-07-25T06:50:54.997Z,1080.00
2022-07-25T06:51:55.279Z,1203.75
2022-07-25T06:52:55.546Z,1035.00
2022-07-25T06:53:55.844Z,1198.12
2022-07-25T06:54:56.142Z,933.75
2022-07-25T06:55:56.453Z,1040.62
2022-07-25T06:56:56.783Z,1102.50
2022-07-25T06:57:57.082Z,916.88
2022-07-25T06:58:57.359Z,849.38
2022-07-25T06:59:57.628Z,343.12
2022-07-25T07:00:57.934Z,258.75
2022-07-25T07:01:58.219Z,236.25
2022-07-25T07:02:58.671Z,213.75
2022-07-25T07:03:58.749Z,202.50
2022-07-25T07:04:59.047Z,185.62
2022-07-25T07:05:59.331Z,174.38
2022-07-25T07:06:59.627Z,163.12
2022-07-25T07:07:59.893Z,157.50
2022-07-25T07:09:00.168Z,140.62
2022-07-25T07:10:00.435Z,129.38
2022-07-25T07:11:00.733Z,118.12
2022-07-25T07:12:01.003Z,118.12
2022-07-25T07:13:01.296Z,118.12
2022-07-25T07:14:01.604Z,118.12
2022-07-25T07:15:01.885Z,112.50
2022-07-25T07:16:02.235Z,112.50
2022-07-25T07:17:02.439Z,112.50
2022-07-25T07:18:02.743Z,112.50
2022-07-25T07:19:03.432Z,112.50
2022-07-25T07:20:03.379Z,112.50
2022-07-25T07:21:03.903Z,112.50
2022-07-25T07:22:03.980Z,112.50
2022-07-25T07:23:04.352Z,112.50
2022-07-25T07:24:04.480Z,112.50
2022-07-25T07:25:05.741Z,112.50
2022-07-25T07:26:04.992Z,112.50
2022-07-25T07:27:05.311Z,112.50
2022-07-25T07:28:05.601Z,112.50
2022-07-25T07:29:06.288Z,112.50
2022-07-25T07:30:06.149Z,112.50
2022-07-25T07:31:16.501Z,112.50
2022-07-25T07:32:08.534Z,112.50
2022-07-25T07:33:06.914Z,112.50
2022-07-25T07:34:07.206Z,106.88
2022-07-25T07:35:07.482Z,106.88
2022-07-25T07:36:07.752Z,112.50
2022-07-25T07:37:08.039Z,106.88
2022-07-25T07:38:08.329Z,106.88
2022-07-25T07:39:09.093Z,106.88
2022-07-25T07:40:08.972Z,106.88
2022-07-25T07:41:10.199Z,106.88
2022-07-25T07:42:09.574Z,106.88
2022-07-25T07:43:09.894Z,106.88
2022-07-25T07:44:10.185Z,106.88
2022-07-25T07:45:10.491Z,106.88
2022-07-25T07:46:10.864Z,106.88
2022-07-25T07:47:14.487Z,106.88
2022-07-25T07:48:11.516Z,106.88
2022-07-25T07:49:12.255Z,106.88
2022-07-25T07:50:11.967Z,106.88
2022-07-25T07:51:12.253Z,106.88
2022-07-25T07:52:12.545Z,106.88
2022-07-25T07:53:12.836Z,106.88
2022-07-25T07:54:13.137Z,106.88
2022-07-25T07:55:13.417Z,106.88
2022-07-25T07:56:13.690Z,106.88
2022-07-25T07:57:15.162Z,106.88
2022-07-25T07:58:14.259Z,106.88
2022-07-25T07:59:14.591Z,106.88
2022-07-25T08:00:16.632Z,106.88
2022-07-25T08:01:15.199Z,106.88
2022-07-25T08:02:15.547Z,106.88
2022-07-25T08:03:15.775Z,106.88
2022-07-25T08:04:16.098Z,106.88
2022-07-25T08:05:16.357Z,112.50
2022-07-25T08:06:16.673Z,112.50
2022-07-25T08:07:16.916Z,112.50
2022-07-25T08:08:17.219Z,112.50
2022-07-25T08:09:17.486Z,112.50
2022-07-25T08:10:17.766Z,112.50
2022-07-25T08:11:18.046Z,112.50
2022-07-25T08:12:18.401Z,112.50
2022-07-25T08:13:18.706Z,112.50
2022-07-25T08:14:19.036Z,112.50
2022-07-25T08:15:19.388Z,112.50
2022-07-25T08:16:19.600Z,112.50
2022-07-25T08:17:22.506Z,112.50
2022-07-25T08:18:21.163Z,112.50
2022-07-25T08:19:20.421Z,112.50
2022-07-25T08:20:37.562Z,112.50
2022-07-25T08:21:21.956Z,112.50
2022-07-25T08:22:21.338Z,112.50
2022-07-25T08:23:21.648Z,112.50
2022-07-25T08:24:21.911Z,112.50
2022-07-25T08:25:22.298Z,112.50
2022-07-25T08:26:22.453Z,112.50
2022-07-25T08:27:22.784Z,118.12
2022-07-25T08:28:23.011Z,118.12
2022-07-25T08:29:28.047Z,118.12
2022-07-25T08:30:24.559Z,118.12
2022-07-25T08:31:23.834Z,118.12
2022-07-25T08:32:24.010Z,118.12
2022-07-25T08:33:24.353Z,118.12
2022-07-25T08:34:24.601Z,118.12
2022-07-25T08:35:24.859Z,118.12
2022-07-25T08:36:25.130Z,118.12
2022-07-25T08:37:25.405Z,118.12
2022-07-25T08:38:25.693Z,118.12
2022-07-25T08:39:25.966Z,118.12
2022-07-25T08:40:26.224Z,118.12
2022-07-25T08:41:26.505Z,118.12
2022-07-25T08:42:26.754Z,118.12
2022-07-25T08:43:27.074Z,118.12
2022-07-25T08:44:27.317Z,118.12
2022-07-25T08:45:27.568Z,118.12
2022-07-25T08:46:27.906Z,118.12
2022-07-25T08:47:28.158Z,118.12
2022-07-25T08:48:28.477Z,118.12
2022-07-25T08:49:28.707Z,118.12
2022-07-25T08:50:28.937Z,118.12
2022-07-25T08:51:29.187Z,118.12
2022-07-25T08:52:29.439Z,118.12
2022-07-25T08:53:34.390Z,118.12
2022-07-25T08:54:31.056Z,118.12
2022-07-25T08:55:30.372Z,118.12
2022-07-25T08:56:30.613Z,118.12
2022-07-25T08:57:30.981Z,118.12
2022-07-25T08:58:31.110Z,118.12
2022-07-25T08:59:31.354Z,118.12
2022-07-25T09:00:31.605Z,118.12
2022-07-25T09:01:34.900Z,118.12
2022-07-25T09:02:32.246Z,118.12
2022-07-25T09:03:32.456Z,118.12
2022-07-25T09:04:32.695Z,118.12
2022-07-25T09:05:32.937Z,118.12
2022-07-25T09:06:33.287Z,118.12
2022-07-25T09:07:33.545Z,118.12
2022-07-25T09:08:33.824Z,118.12
2022-07-25T09:09:34.087Z,118.12
2022-07-25T09:10:34.350Z,118.12
2022-07-25T09:11:34.591Z,118.12
2022-07-25T09:12:34.843Z,118.12
2022-07-25T09:13:35.102Z,118.12
2022-07-25T09:14:35.360Z,118.12
2022-07-25T09:15:35.658Z,118.12
2022-07-25T09:16:35.891Z,118.12
2022-07-25T09:17:36.140Z,118.12
2022-07-25T09:18:36.372Z,118.12
2022-07-25T09:19:36.627Z,118.12
2022-07-25T09:20:36.875Z,118.12
2022-07-25T09:21:37.245Z,118.12
2022-07-25T09:22:37.365Z,118.12
2022-07-25T09:23:37.626Z,118.12
2022-07-25T09:24:37.867Z,118.12
2022-07-25T09:25:38.134Z,118.12
2022-07-25T09:26:38.429Z,118.12
2022-07-25T09:27:38.715Z,118.12
2022-07-25T09:28:38.978Z,118.12
2022-07-25T09:29:39.309Z,118.12
2022-07-25T09:30:39.599Z,118.12
2022-07-25T09:31:39.936Z,118.12
2022-07-25T09:32:40.087Z,118.12
2022-07-25T09:33:40.364Z,118.12
2022-07-25T09:34:40.642Z,118.12
2022-07-25T09:35:40.954Z,118.12
2022-07-25T09:36:41.232Z,118.12
2022-07-25T09:37:41.549Z,118.12
2022-07-25T09:38:41.854Z,118.12
2022-07-25T09:39:46.073Z,118.12
2022-07-25T09:40:43.364Z,118.12
2022-07-25T09:41:42.671Z,118.12
2022-07-25T09:42:42.935Z,118.12
2022-07-25T09:43:43.196Z,118.12
2022-07-25T09:44:43.449Z,118.12
2022-07-25T09:45:43.688Z,118.12
2022-07-25T09:46:44.027Z,118.12
2022-07-25T09:47:44.160Z,118.12
2022-07-25T09:48:44.543Z,118.12
2022-07-25T09:49:44.703Z,118.12
2022-07-25T09:50:44.980Z,118.12
2022-07-25T09:51:45.251Z,118.12
2022-07-25T09:52:45.518Z,118.12
2022-07-25T09:53:45.859Z,118.12
2022-07-25T09:54:46.031Z,118.12
2022-07-25T09:55:46.288Z,118.12
2022-07-25T09:56:46.566Z,118.12
2022-07-25T09:57:46.805Z,118.12
2022-07-25T09:58:47.086Z,118.12
2022-07-25T09:59:47.346Z,118.12
2022-07-25T10:00:47.620Z,118.12
2022-07-25T10:01:47.982Z,118.12
2022-07-25T10:02:48.133Z,118.12
2022-07-25T10:03:48.352Z,118.12
2022-07-25T10:04:48.611Z,118.12
2022-07-25T10:05:48.887Z,118.12
2022-07-25T10:06:49.141Z,118.12
2022-07-25T10:07:49.422Z,118.12
2022-07-25T10:08:49.671Z,118.12
2022-07-25T10:09:49.913Z,118.12
2022-07-25T10:10:50.201Z,118.12
2022-07-25T10:11:50.463Z,118.12
2022-07-25T10:12:50.752Z,118.12
2022-07-25T10:13:51.035Z,118.12
2022-07-25T10:14:51.324Z,118.12
2022-07-25T10:15:52.594Z,118.12
2022-07-25T10:16:51.956Z,118.12
2022-07-25T10:17:52.248Z,118.12
2022-07-25T10:18:52.593Z,118.12
2022-07-25T10:19:58.292Z,118.12
2022-07-25T10:20:54.098Z,118.12
2022-07-25T10:21:53.417Z,118.12
2022-07-25T10:22:56.874Z,118.12
2022-07-25T10:23:53.940Z,118.12
2022-07-25T10:24:54.177Z,112.50
2022-07-25T10:25:54.470Z,118.12
2022-07-25T10:26:54.779Z,112.50
2022-07-25T10:27:55.055Z,112.50
2022-07-25T10:28:55.362Z,112.50
2022-07-25T10:29:55.618Z,112.50
2022-07-25T10:30:55.949Z,112.50
2022-07-25T10:31:56.211Z,112.50
2022-07-25T10:32:56.474Z,112.50
2022-07-25T10:33:56.743Z,112.50
2022-07-25T10:34:56.981Z,112.50
2022-07-25T10:35:57.236Z,112.50
2022-07-25T10:36:57.515Z,112.50
2022-07-25T10:37:57.736Z,112.50
2022-07-25T10:38:58.007Z,118.12
2022-07-25T10:39:58.270Z,112.50
2022-07-25T10:40:58.526Z,118.12
2022-07-25T10:41:58.779Z,112.50
2022-07-25T10:42:59.030Z,112.50
2022-07-25T10:43:59.314Z,112.50
2022-07-25T10:44:59.584Z,118.12
2022-07-25T10:45:59.866Z,118.12
2022-07-25T10:47:00.134Z,118.12
2022-07-25T10:48:00.424Z,118.12
2022-07-25T10:49:00.766Z,118.12
2022-07-25T10:50:16.902Z,118.12
2022-07-25T10:51:02.156Z,118.12
2022-07-25T10:52:01.470Z,118.12
2022-07-25T10:53:01.738Z,118.12
2022-07-25T10:54:02.007Z,118.12
2022-07-25T10:55:02.299Z,118.12
2022-07-25T10:56:06.014Z,118.12
2022-07-25T10:57:02.860Z,112.50
2022-07-25T10:58:16.993Z,112.50
2022-07-25T10:59:04.775Z,112.50
2022-07-25T11:00:03.650Z,112.50
2022-07-25T11:01:04.014Z,112.50
2022-07-25T11:02:04.170Z,112.50
2022-07-25T11:03:04.488Z,112.50
2022-07-25T11:04:04.882Z,112.50
2022-07-25T11:05:04.972Z,112.50
2022-07-25T11:06:05.282Z,112.50
2022-07-25T11:07:05.603Z,112.50
2022-07-25T11:08:21.165Z,112.50
2022-07-25T11:09:07.501Z,112.50
2022-07-25T11:10:06.374Z,112.50
2022-07-25T11:11:06.657Z,112.50
2022-07-25T11:12:06.945Z,112.50
2022-07-25T11:13:07.198Z,112.50
2022-07-25T11:14:07.538Z,112.50
2022-07-25T11:15:07.816Z,118.12
2022-07-25T11:16:08.078Z,118.12
2022-07-25T11:17:08.423Z,118.12
2022-07-25T11:18:08.609Z,118.12
2022-07-25T11:19:09.259Z,118.12
2022-07-25T11:20:09.265Z,118.12
2022-07-25T11:21:09.503Z,118.12
2022-07-25T11:22:09.779Z,118.12
2022-07-25T11:23:10.047Z,118.12
2022-07-25T11:24:10.305Z,118.12
2022-07-25T11:25:10.564Z,118.12
2022-07-25T11:26:10.844Z,118.12
2022-07-25T11:27:12.323Z,118.12
2022-07-25T11:28:11.464Z,112.50
2022-07-25T11:29:11.748Z,118.12
2022-07-25T11:30:12.035Z,118.12
2022-07-25T11:31:12.306Z,123.75
2022-07-25T11:32:12.682Z,123.75
2022-07-25T11:33:17.190Z,123.75
2022-07-25T11:34:13.306Z,123.75
2022-07-25T11:35:13.547Z,129.38
2022-07-25T11:36:13.887Z,129.38
2022-07-25T11:37:14.486Z,123.75
2022-07-25T11:38:14.489Z,123.75
2022-07-25T11:39:18.691Z,129.38
2022-07-25T11:40:15.013Z,129.38
2022-07-25T11:41:15.271Z,129.38
2022-07-25T11:42:15.582Z,129.38
2022-07-25T11:43:15.874Z,129.38
2022-07-25T11:44:16.174Z,129.38
2022-07-25T11:45:16.425Z,129.38
2022-07-25T11:46:16.745Z,129.38
2022-07-25T11:47:17.045Z,129.38
2022-07-25T11:48:18.065Z,129.38
2022-07-25T11:49:19.464Z,129.38
2022-07-25T11:50:17.799Z,135.00
2022-07-25T11:51:19.134Z,146.25
2022-07-25T11:52:18.386Z,146.25
2022-07-25T11:53:18.753Z,146.25
2022-07-25T11:54:18.981Z,151.88
2022-07-25T11:55:19.140Z,163.12
2022-07-25T11:56:41.290Z,174.38
2022-07-25T11:57:20.662Z,163.12
2022-07-25T11:58:20.060Z,163.12
2022-07-25T11:59:20.407Z,163.12
2022-07-25T12:00:20.678Z,157.50
2022-07-25T12:01:21.046Z,151.88
2022-07-25T12:02:21.466Z,151.88
2022-07-25T12:03:21.741Z,151.88
2022-07-25T12:04:22.005Z,140.62
2022-07-25T12:05:22.301Z,106.88
2022-07-25T12:06:22.549Z,101.25
2022-07-25T12:07:22.828Z,129.38
2022-07-25T12:08:23.117Z,129.38
2022-07-25T12:09:23.387Z,123.75
2022-07-25T12:10:23.647Z,129.38
2022-07-25T12:11:23.919Z,129.38
2022-07-25T12:12:24.315Z,129.38
2022-07-25T12:13:24.442Z,129.38
2022-07-25T12:14:24.759Z,129.38
2022-07-25T12:15:25.040Z,123.75
2022-07-25T12:16:26.091Z,129.38
2022-07-25T12:17:25.522Z,146.25
2022-07-25T12:18:25.797Z,163.12
2022-07-25T12:19:26.115Z,174.38
2022-07-25T12:20:26.383Z,168.75
2022-07-25T12:21:27.435Z,163.12
2022-07-25T12:22:26.877Z,123.75
2022-07-25T12:23:27.144Z,123.75
2022-07-25T12:24:27.456Z,140.62
2022-07-25T12:25:31.033Z,140.62
2022-07-25T12:26:28.117Z,146.25
2022-07-25T12:27:28.445Z,163.12
2022-07-25T12:28:28.761Z,185.62
2022-07-25T12:29:29.121Z,196.88
2022-07-25T12:30:29.466Z,196.88
2022-07-25T12:31:29.750Z,208.12
2022-07-25T12:32:29.900Z,168.75
2022-07-25T12:33:30.915Z,151.88
2022-07-25T12:34:30.420Z,163.12
2022-07-25T12:35:30.711Z,174.38
2022-07-25T12:36:30.971Z,168.75
2022-07-25T12:37:31.233Z,157.50
2022-07-25T12:38:33.509Z,191.25
2022-07-25T12:39:31.864Z,185.62
2022-07-25T12:40:32.126Z,185.62
2022-07-25T12:41:32.420Z,174.38
2022-07-25T12:42:32.678Z,174.38
2022-07-25T12:43:32.950Z,163.12
2022-07-25T12:44:33.251Z,157.50
2022-07-25T12:45:33.606Z,146.25